Grand Junction Regional Airport
KGJT : now visible

Airfield :











YOU CAN JOIN US ON...

 
LOGIN :

Register | Disclaimer

   EN    FR    IT 

 









Legend :    VFR   Marginal VFR   IFR   Intensive IFR   Very Intensive IFR
Visi :
Ceiling :
>= 8 km
>= 3000ft
5 to 8 km
1000 to 3000 ft
1500m to 5 km
500 to 1000 ft
800 to 1500m
200 to 500 ft
< 800m
< 200 ft
Symbols :   Thunderstorms  Fog  Heavy snow  Heavy precipitations  Wind > 20 kt






- Airport Elevation : 4858 ft
- IATA code : GJT


KGJT - Grand Junction Regional

CURRENT METAR :
  • 071853Z 29007KT 10SM CLR 18/M08 A3008 RMK AO2 SLP144 T01831083

EXPIRED METARs :
  • 071753Z 35004KT 10SM CLR 17/M09 A3010 RMK AO2 SLP153 T01721094 10172 20039 58003
  • 071653Z VRB04KT 10SM CLR 17/M11 A3011 RMK AO2 SLP158 T01671106

TAF KGJT
Valid from the 07 at 18:00 until the 08 at 18:00 UTC


071720Z 0718/0818 26005KT P6SM FEW250
FM071900 28010KT P6SM SKC
FM072200 29012G19KT P6SM FEW250
FM080300 01004KT P6SM FEW250
FM081100 11008KT P6SM SKC



MET'MAP, your aeronautical weather chart ! - Copyright ORBIFLY December 2007 - Disclaimer

ORBIFLY MET'MAP TEAM :

Programming & Development : Alexandra Zaïnal
Concept & original design : Baudouin d'Aumeries
Assistance for programming : Marc-Olivier Méhu
Technical & hardware support : Manuel Goepfert

Contact : metmap@orbifly.com




SOURCES & CREDITS :

   NOAA       Earth
Advisory